14:59
Airports
Links
Donate
Help keep this website running!
PayPal
Bitcoin
METAR
LIMG 161350Z 12006KT CAVOK 11/05 Q1006
Current Weather Conditions at LIMG
VFR 13:50:00 16-01-18
Altimeter:29.70 hg
Temp:11.0°c 52°f
Dew point:5.0°c 41°f
Wind:6 knots, 6.9 mph, 3 m/s, from 120°
Visibility:6.21 statute miles
(CAVOK)
Past METAR reports
VFR 12:50:00 16-01-18
Altimeter:29.73 hg
Temp:11.0°c 52°f
Dew point:4.0°c 39°f
Wind:7 knots, 8.1 mph, 4 m/s, from 120°
Visibility:6.21 statute miles
(CAVOK)
LIMG 161250Z 12007KT CAVOK 11/04 Q1007
VFR 11:50:00 16-01-18
Altimeter:29.76 hg
Temp:11.0°c 52°f
Dew point:4.0°c 39°f
Wind:6 knots, 6.9 mph, 3 m/s, from 120°
Visibility:6.21 statute miles
(CAVOK)
LIMG 161150Z 12006KT CAVOK 11/04 Q1008
VFR 10:50:00 16-01-18
Altimeter:29.79 hg
Temp:10.0°c 50°f
Dew point:3.0°c 37°f
Wind:0 knots, 0 mph, 0 m/s,
Variable direction
Visibility:6.21 statute miles
(CAVOK)
LIMG 161050Z 00000KT CAVOK 10/03 Q1009
VFR 09:50:00 16-01-18
Altimeter:29.82 hg
Temp:8.0°c 46°f
Dew point:3.0°c 37°f
Wind:0 knots, 0 mph, 0 m/s,
Variable direction
Visibility:6.21 statute miles
(CAVOK)
LIMG 160950Z 00000KT CAVOK 08/03 Q1010
TAF
No TAF for LIMG
Forecast at LIMG
No Forecast Reports for LIMG